Northern Power — A8TL6 — position and weather

sailwx.info

Track history (hours):
 
Tides and Currents Weather Stations Pressure Air Temp Water Temp Dewpoint Dewpoint Depression Visibility Wind Speed Wind Dir Waves Ship Positions

Northern Power

Last reported at 2017-Sep-19 16:03 UTC. Time now 2017-Nov-21 21:18 UTC.
Position S 29°27' E 032°01'.
Warning: this ship's position is months out of date.

Length 264 m; draft 11.4 m.

Type: Cargo ship. MMSI: 636091835.

Date/timePositionNaut miles runAvg speedWind from/ knotsBaromVisibWave heightAir tempDewpointWater temp
2017-Sep-19 16:03S 29°27' E 032°01'1 9.8
2017-Sep-19 15:58S 29°27' E 031°60'4 9.9
2017-Sep-19 15:30S 29°30' E 031°55'510.0
2017-Sep-19 15:00S 29°32' E 031°50'511.0
2017-Sep-19 14:30S 29°34' E 031°44'611.9
2017-Sep-19 14:00S 29°37' E 031°38'612.4
2017-Sep-19 13:30S 29°39' E 031°32'612.8
2017-Sep-19 13:00S 29°42' E 031°25'612.9
2017-Sep-19 12:30S 29°45' E 031°18'612.7
2017-Sep-19 12:00S 29°47' E 031°12'612.6
2017-Sep-19 11:30S 29°51' E 031°05'4 7.1
2017-Sep-19 11:00S 29°52' E 031°02'1 1.7
2017-Sep-19 10:30S 29°53' E 031°01'0 0.0
2017-Sep-19 10:00S 29°53' E 031°01'0 0.0
2017-Sep-19 09:30S 29°53' E 031°01'0 0.0
2017-Sep-19 09:00S 29°53' E 031°01'0 0.0
2017-Sep-19 08:29S 29°53' E 031°01'0 0.0
2017-Sep-19 08:00S 29°53' E 031°01'0 0.0
2017-Sep-19 07:30S 29°53' E 031°01'0 0.1
2017-Sep-19 07:00S 29°53' E 031°01'0 0.1
2017-Sep-19 06:30S 29°53' E 031°01'0 0.0
2017-Sep-19 05:58S 29°53' E 031°01'0 0.0
2017-Sep-19 05:30S 29°53' E 031°01'0 0.1
2017-Sep-19 04:58S 29°53' E 031°01'0 0.1
2017-Sep-19 04:29S 29°53' E 031°01'0 0.1
2017-Sep-19 03:59S 29°53' E 031°01'0 0.0
2017-Sep-19 03:29S 29°53' E 031°01'0 0.0
2017-Sep-19 02:59S 29°53' E 031°01'0 0.0
2017-Sep-19 02:29S 29°53' E 031°01'0 0.0
2017-Sep-19 01:59S 29°53' E 031°01'0 0.0
2017-Sep-19 01:26S 29°53' E 031°01'0 0.0
2017-Sep-19 00:59S 29°53' E 031°01'0 0.0
2017-Sep-19 00:29S 29°53' E 031°01'0 0.0
2017-Sep-18 23:59S 29°53' E 031°01'0 0.0
2017-Sep-18 23:29S 29°53' E 031°01'0 0.0
2017-Sep-18 22:59S 29°53' E 031°01'0 0.0
2017-Sep-18 22:29S 29°53' E 031°01'0 0.0
2017-Sep-18 21:59S 29°53' E 031°01'0 0.0
2017-Sep-18 21:29S 29°53' E 031°01'0 0.0
2017-Sep-18 20:59S 29°53' E 031°01'0 0.0
2017-Sep-18 20:29S 29°53' E 031°01'0 0.0
2017-Sep-18 19:59S 29°53' E 031°01'0 0.0
2017-Sep-18 19:29S 29°53' E 031°01'0 0.0
2017-Sep-18 18:59S 29°53' E 031°01'0 0.0
2017-Sep-18 18:29S 29°53' E 031°01'0 0.0
2017-Sep-18 17:59S 29°53' E 031°01'0 0.0
2017-Sep-18 17:29S 29°53' E 031°01'0 0.0
2017-Sep-18 16:59S 29°53' E 031°01'0 0.0
2017-Sep-18 16:29S 29°53' E 031°01'0 0.0
2017-Sep-18 15:59S 29°53' E 031°01'0 0.0
2017-Sep-18 15:29S 29°53' E 031°01'0 0.0
2017-Sep-18 14:59S 29°53' E 031°01'0 0.0
2017-Sep-18 14:29S 29°53' E 031°01'0 0.0
2017-Sep-18 13:59S 29°53' E 031°01'0 0.0
2017-Sep-18 13:29S 29°53' E 031°01'0 0.0
2017-Sep-18 12:59S 29°53' E 031°01'0 0.0
2017-Sep-18 12:29S 29°53' E 031°01'0 0.2
2017-Sep-18 12:00S 29°53' E 031°01'2 4.3
2017-Sep-18 11:30S 29°52' E 031°04'4 7.3
2017-Sep-18 11:00S 29°49' E 031°06'5 9.1
2017-Sep-18 10:30S 29°48' E 031°11'0 0.9
2017-Sep-18 10:00S 29°48' E 031°11'1 1.3
2017-Sep-18 09:30S 29°47' E 031°10'2 4.2
2017-Sep-18 09:00S 29°45' E 031°11'2 3.8
2017-Sep-18 08:28S 29°43' E 031°11'0 0.2
2017-Sep-18 07:58S 29°43' E 031°11'0 0.0
2017-Sep-18 07:25S 29°43' E 031°11'0 0.1
2017-Sep-18 06:58S 29°43' E 031°11'0 0.1
2017-Sep-18 06:28S 29°43' E 031°11'0 0.1
2017-Sep-18 05:58S 29°43' E 031°11'0 0.0
2017-Sep-18 05:28S 29°43' E 031°11'0 0.0
2017-Sep-18 04:58S 29°43' E 031°11'0 0.1
2017-Sep-18 04:28S 29°43' E 031°11'0 0.1
2017-Sep-18 03:58S 29°43' E 031°11'0 0.0
2017-Sep-18 03:28S 29°43' E 031°11'0 0.1
2017-Sep-18 02:58S 29°43' E 031°11'0 0.1
2017-Sep-18 02:25S 29°43' E 031°11'0 0.1
2017-Sep-18 01:58S 29°43' E 031°11'0 0.0
2017-Sep-17 18:52S 29°43' E 031°11'0 0.1
2017-Sep-17 18:28S 29°43' E 031°11'0 0.0
2017-Sep-17 17:58S 29°43' E 031°11'0 0.0
2017-Sep-17 17:28S 29°43' E 031°11'0 0.1
2017-Sep-17 16:55S 29°43' E 031°11'0 0.0
2017-Sep-17 16:28S 29°43' E 031°11'0 0.0
2017-Sep-17 15:58S 29°43' E 031°11'0 0.0
2017-Sep-17 15:28S 29°43' E 031°11'0 0.0
2017-Sep-17 14:58S 29°43' E 031°11'0 0.0
2017-Sep-17 14:28S 29°43' E 031°11'0 0.0
2017-Sep-17 13:58S 29°43' E 031°11'0 0.1
2017-Sep-17 13:28S 29°43' E 031°11'0 0.0
2017-Sep-17 12:58S 29°43' E 031°11'0 0.0
2017-Sep-17 12:25S 29°43' E 031°11'0 0.0
2017-Sep-17 11:58S 29°43' E 031°11'0 0.0
2017-Sep-17 11:28S 29°43' E 031°11'0 0.0
2017-Sep-17 10:58S 29°43' E 031°11'0 0.1
2017-Sep-17 10:28S 29°43' E 031°11'0 0.0
2017-Sep-17 09:58S 29°43' E 031°11'0 0.0
2017-Sep-17 09:28S 29°43' E 031°11'0 0.1
2017-Sep-17 08:58S 29°43' E 031°11'0 0.1
2017-Sep-17 08:28S 29°43' E 031°11'0 0.0
2017-Sep-17 07:58S 29°43' E 031°11'0 0.1
2017-Sep-17 07:28S 29°43' E 031°11'0 0.1
2017-Sep-17 06:58S 29°43' E 031°11'0 0.1
2017-Sep-17 06:28S 29°43' E 031°11'0 0.0
2017-Sep-17 05:58S 29°43' E 031°11'0 0.0
2017-Sep-17 05:25S 29°43' E 031°11'0 0.0
2017-Sep-17 04:58S 29°43' E 031°11'0 0.0
2017-Sep-17 04:28S 29°43' E 031°11'0 0.1
2017-Sep-17 03:55S 29°43' E 031°11'0 0.1
2017-Sep-17 03:28S 29°43' E 031°11'0 0.1
2017-Sep-17 02:58S 29°43' E 031°11'0 0.1
2017-Sep-17 02:28S 29°43' E 031°11'0 0.0
2017-Sep-17 01:58S 29°43' E 031°11'0 0.0
2017-Sep-17 01:25S 29°43' E 031°11'0 0.1
2017-Sep-17 00:58S 29°43' E 031°11'0 0.0
2017-Sep-17 00:28S 29°43' E 031°11'0 0.1
2017-Sep-16 23:58S 29°43' E 031°11'0 0.0
2017-Sep-16 23:28S 29°43' E 031°11'0 0.1
2017-Sep-16 22:58S 29°43' E 031°11'0 0.0
2017-Sep-16 22:28S 29°43' E 031°11'0 0.2
2017-Sep-16 22:00S 29°43' E 031°11'2 3.1
2017-Sep-16 21:30S 29°42' E 031°12'2 3.5
2017-Sep-16 21:00S 29°41' E 031°14'1 2.9
2017-Sep-16 20:30S 29°40' E 031°15'1 3.0
2017-Sep-16 20:00S 29°40' E 031°17'0 0.9
2017-Sep-16 19:30S 29°40' E 031°17'1 3.0
2017-Sep-16 19:00S 29°41' E 031°16'4 8.0
2017-Sep-16 18:30S 29°45' E 031°15'4 8.8
2017-Sep-16 18:00S 29°49' E 031°13'2 4.3
2017-Sep-16 17:30S 29°47' E 031°12'2 4.2
2017-Sep-16 17:00S 29°45' E 031°12'1 2.9
2017-Sep-16 16:30S 29°43' E 031°12'1 2.6
2017-Sep-16 16:00S 29°42' E 031°13'0 0.4
2017-Sep-16 15:28S 29°42' E 031°12'0 0.2
2017-Sep-16 14:58S 29°42' E 031°12'0 0.2
2017-Sep-16 14:28S 29°42' E 031°12'0 0.0
2017-Sep-16 13:58S 29°42' E 031°12'0 0.1
2017-Sep-16 13:28S 29°42' E 031°12'0 0.0
2017-Sep-16 12:58S 29°42' E 031°12'0 0.0
2017-Sep-16 12:28S 29°42' E 031°12'0 0.0
2017-Sep-16 11:58S 29°42' E 031°12'0 0.0
2017-Sep-16 11:28S 29°42' E 031°12'0 0.0
2017-Sep-16 10:58S 29°42' E 031°12'0 0.0
2017-Sep-16 10:28S 29°42' E 031°12'0 0.1
2017-Sep-16 09:58S 29°42' E 031°12'0 0.0
2017-Sep-16 09:28S 29°42' E 031°12'0 0.3
2017-Sep-16 08:58S 29°42' E 031°12'0 0.1
2017-Sep-16 08:28S 29°42' E 031°12'0 0.1
2017-Sep-16 07:58S 29°42' E 031°12'0 0.1
2017-Sep-16 07:28S 29°42' E 031°12'0 0.0
2017-Sep-16 06:58S 29°42' E 031°12'0 0.1
2017-Sep-16 06:25S 29°42' E 031°12'0 0.1
2017-Sep-16 05:58S 29°42' E 031°12'0 0.1
2017-Sep-16 05:28S 29°42' E 031°12'0 0.0
2017-Sep-16 04:58S 29°42' E 031°12'0 0.1
2017-Sep-16 04:28S 29°42' E 031°12'0 0.0
2017-Sep-16 03:52S 29°42' E 031°12'0 0.0
2017-Sep-16 03:28S 29°42' E 031°12'0 0.0
2017-Sep-16 02:58S 29°42' E 031°12'0 0.0
2017-Sep-16 02:28S 29°42' E 031°12'0 0.0
2017-Sep-16 01:58S 29°42' E 031°12'0 0.0
2017-Sep-16 01:25S 29°42' E 031°12'0 0.0
2017-Sep-16 00:58S 29°42' E 031°12'0 0.0
2017-Sep-16 00:28S 29°42' E 031°12'0 0.0
2017-Sep-15 23:58S 29°42' E 031°12'0 0.0
2017-Sep-15 23:28S 29°42' E 031°12'0 0.0
2017-Sep-15 22:58S 29°42' E 031°12'0 0.0
2017-Sep-15 22:28S 29°42' E 031°12'0 0.0
2017-Sep-15 21:58S 29°42' E 031°12'0 0.1
2017-Sep-15 21:25S 29°42' E 031°12'0 0.0
2017-Sep-15 20:58S 29°42' E 031°12'0 0.0
2017-Sep-15 20:28S 29°42' E 031°12'0 0.0
2017-Sep-15 19:58S 29°42' E 031°12'0 0.0
2017-Sep-15 19:28S 29°42' E 031°12'0 0.0
2017-Sep-15 18:58S 29°42' E 031°12'0 0.0
2017-Sep-15 18:25S 29°42' E 031°12'0 0.0
2017-Sep-15 17:58S 29°42' E 031°12'0 0.0
2017-Sep-15 17:28S 29°42' E 031°12'0 0.0
2017-Sep-15 16:58S 29°42' E 031°12'0 0.0
2017-Sep-15 16:28S 29°42' E 031°12'0 0.0
2017-Sep-15 15:58S 29°42' E 031°12'0 0.0
2017-Sep-15 15:25S 29°42' E 031°12'0 0.0
2017-Sep-15 14:58S 29°42' E 031°12'0 0.0
2017-Sep-15 14:28S 29°42' E 031°12'0 0.0
2017-Sep-15 13:58S 29°42' E 031°12'0 0.0
2017-Sep-15 13:28S 29°42' E 031°12'0 0.0
2017-Sep-15 12:58S 29°42' E 031°12'0 0.0
2017-Sep-15 12:28S 29°42' E 031°12'0 0.0
2017-Sep-15 11:58S 29°42' E 031°12'0 0.0
2017-Sep-15 11:28S 29°42' E 031°12'0 0.0
2017-Sep-15 10:58S 29°42' E 031°12'0 0.0
2017-Sep-15 10:25S 29°42' E 031°12'0 0.0
2017-Sep-15 09:52S 29°42' E 031°12'0 0.0
2017-Sep-15 09:28S 29°42' E 031°12'0 0.1
2017-Sep-15 08:58S 29°42' E 031°12'0 0.0
2017-Sep-15 08:28S 29°42' E 031°12'0 0.0
2017-Sep-15 07:58S 29°42' E 031°12'0 0.0
2017-Sep-15 07:28S 29°42' E 031°12'0 0.0
2017-Sep-15 06:58S 29°42' E 031°12'0 0.0
2017-Sep-15 06:28S 29°42' E 031°12'0 0.0
2017-Sep-15 05:58S 29°42' E 031°12'0 0.0
2017-Sep-15 05:28S 29°42' E 031°12'0 0.0
2017-Sep-15 04:58S 29°42' E 031°12'0 0.0
2017-Sep-15 04:28S 29°42' E 031°12'0 0.0
2017-Sep-15 03:58S 29°42' E 031°12'0 0.1
2017-Sep-15 03:28S 29°42' E 031°12'0 0.1
2017-Sep-15 02:58S 29°42' E 031°12'0 0.1
2017-Sep-15 02:28S 29°42' E 031°12'0 0.0
2017-Sep-15 01:58S 29°42' E 031°12'0 0.0
2017-Sep-15 01:25S 29°42' E 031°12'0 0.0
2017-Sep-15 00:58S 29°42' E 031°12'0 0.0
2017-Sep-15 00:28S 29°42' E 031°12'0 0.0
2017-Sep-14 23:58S 29°42' E 031°12'0 0.0
2017-Sep-14 23:28S 29°42' E 031°12'0 0.0
2017-Sep-14 22:58S 29°42' E 031°12'0 0.1
2017-Sep-14 22:28S 29°42' E 031°12'0 0.1
2017-Sep-14 21:58S 29°42' E 031°12'0 0.0
2017-Sep-14 21:25S 29°42' E 031°12'0 0.2
2017-Sep-14 20:58S 29°42' E 031°12'0 0.1
2017-Sep-14 20:28S 29°42' E 031°12'0 0.1
2017-Sep-14 19:58S 29°42' E 031°12'0 0.1
2017-Sep-14 19:28S 29°42' E 031°12'0 0.0
2017-Sep-14 18:58S 29°42' E 031°12'0 0.0
2017-Sep-14 18:28S 29°42' E 031°12'0 0.1
2017-Sep-14 17:58S 29°42' E 031°12'0 0.1
2017-Sep-14 17:25S 29°42' E 031°12'0 0.0
2017-Sep-14 16:58S 29°42' E 031°12'0 0.0
2017-Sep-14 16:28S 29°42' E 031°12'0 0.1
2017-Sep-14 15:58S 29°42' E 031°12'0 0.0
2017-Sep-14 15:28S 29°42' E 031°12'0 0.0
2017-Sep-14 14:58S 29°42' E 031°12'0 0.1
2017-Sep-14 14:28S 29°42' E 031°12'0 0.0
2017-Sep-14 13:55S 29°42' E 031°12'0 0.0
2017-Sep-14 13:28S 29°42' E 031°12'0 0.1
2017-Sep-14 12:58S 29°42' E 031°12'0 0.1
2017-Sep-14 12:28S 29°42' E 031°12'0 0.1
2017-Sep-14 11:58S 29°42' E 031°12'0 0.1
2017-Sep-14 11:25S 29°42' E 031°12'0 0.1
2017-Sep-14 10:49S 29°42' E 031°12'0 0.1
2017-Sep-14 10:28S 29°42' E 031°12'0 0.0
2017-Sep-14 09:55S 29°42' E 031°12'0 0.0
2017-Sep-14 09:28S 29°42' E 031°12'0 0.0
2017-Sep-14 08:58S 29°42' E 031°12'0 0.1
2017-Sep-14 08:28S 29°42' E 031°12'0 0.0
2017-Sep-14 07:58S 29°42' E 031°12'0 0.0
2017-Sep-14 07:28S 29°42' E 031°12'0 0.0
2017-Sep-14 06:58S 29°42' E 031°12'0 0.0
2017-Sep-14 06:28S 29°42' E 031°12'0 0.0
2017-Sep-14 05:58S 29°42' E 031°12'0 0.0
2017-Sep-14 05:25S 29°42' E 031°12'0 0.1
2017-Sep-14 04:58S 29°42' E 031°12'0 0.2
2017-Sep-14 04:28S 29°42' E 031°12'0 0.0
2017-Sep-14 03:55S 29°42' E 031°12'0 0.1
2017-Sep-14 03:22S 29°42' E 031°12'0 0.1
2017-Sep-14 02:55S 29°42' E 031°12'0 0.0
2017-Sep-14 02:28S 29°42' E 031°12'0 0.0
2017-Sep-14 01:58S 29°42' E 031°12'0 0.0
2017-Sep-14 01:25S 29°42' E 031°12'0 0.1
2017-Sep-14 00:58S 29°42' E 031°12'0 0.0
2017-Sep-14 00:28S 29°42' E 031°12'0 0.0
2017-Sep-13 23:58S 29°42' E 031°12'0 0.1
2017-Sep-13 23:28S 29°42' E 031°12'0 0.1
2017-Sep-13 22:58S 29°42' E 031°12'0 0.0
2017-Sep-13 22:28S 29°42' E 031°12'0 0.0
2017-Sep-13 21:58S 29°42' E 031°12'0 0.1
2017-Sep-13 21:28S 29°42' E 031°12'0 0.0
2017-Sep-13 20:58S 29°42' E 031°12'0 0.0
2017-Sep-13 20:25S 29°42' E 031°12'0 0.1
2017-Sep-13 19:55S 29°42' E 031°12'0 0.0
2017-Sep-13 19:28S 29°42' E 031°12'0 0.0
2017-Sep-13 18:52S 29°42' E 031°12'0 0.0
2017-Sep-13 18:28S 29°42' E 031°12'0 0.0
2017-Sep-13 17:55S 29°42' E 031°12'0 0.0
2017-Sep-13 17:28S 29°42' E 031°12'0 0.0
2017-Sep-13 16:55S 29°42' E 031°12'0 0.0
2017-Sep-13 16:28S 29°42' E 031°12'0 0.0
2017-Sep-13 15:58S 29°42' E 031°12'0 0.0
2017-Sep-13 15:28S 29°42' E 031°12'0 0.0
2017-Sep-13 14:58S 29°42' E 031°12'0 0.0
2017-Sep-13 14:28S 29°42' E 031°12'0 0.0
2017-Sep-13 13:58S 29°42' E 031°12'0 0.0
2017-Sep-13 13:28S 29°42' E 031°12'0 0.0
2017-Sep-13 12:58S 29°42' E 031°12'0 0.0
2017-Sep-13 12:28S 29°42' E 031°12'0 0.0
2017-Sep-13 11:58S 29°42' E 031°12'0 0.0
2017-Sep-13 11:28S 29°42' E 031°12'0 0.0
2017-Sep-13 10:58S 29°42' E 031°12'0 0.0
2017-Sep-13 10:28S 29°42' E 031°12'0 0.0
2017-Sep-13 09:58S 29°42' E 031°12'0 0.0
2017-Sep-13 09:28S 29°42' E 031°12'0 0.0
2017-Sep-13 08:58S 29°42' E 031°12'0 0.0
2017-Sep-13 08:28S 29°42' E 031°12'0 0.0
2017-Sep-13 07:58S 29°42' E 031°12'0 0.0
2017-Sep-13 07:28S 29°42' E 031°12'0 0.0
2017-Sep-13 06:58S 29°42' E 031°12'0 0.0
2017-Sep-13 06:25S 29°42' E 031°12'0 0.0
2017-Sep-13 05:55S 29°42' E 031°12'0 0.1
2017-Sep-13 05:28S 29°42' E 031°12'0 0.1
2017-Sep-13 04:58S 29°42' E 031°12'0 0.1
2017-Sep-13 04:28S 29°42' E 031°12'0 0.1
2017-Sep-13 03:55S 29°42' E 031°12'0 0.0
2017-Sep-13 03:28S 29°42' E 031°12'0 0.0
2017-Sep-13 02:58S 29°42' E 031°12'0 0.0
2017-Sep-13 02:28S 29°42' E 031°12'0 0.1
2017-Sep-13 01:58S 29°42' E 031°12'0 0.0
2017-Sep-13 01:22S 29°42' E 031°12'0 0.1
2017-Sep-13 00:58S 29°42' E 031°12'0 0.0
2017-Sep-13 00:25S 29°42' E 031°12'0 0.0
2017-Sep-12 23:55S 29°42' E 031°12'0 0.0
2017-Sep-12 23:28S 29°42' E 031°12'0 0.0
2017-Sep-12 22:58S 29°42' E 031°12'0 0.0
2017-Sep-12 22:28S 29°42' E 031°12'0 0.0
2017-Sep-12 21:58S 29°42' E 031°12'0 0.1
2017-Sep-12 21:28S 29°42' E 031°12'0 0.0
2017-Sep-12 20:58S 29°42' E 031°12'0 0.1
2017-Sep-12 20:28S 29°42' E 031°12'0 0.1
2017-Sep-12 19:58S 29°42' E 031°12'0 0.3
2017-Sep-12 19:28S 29°42' E 031°12'0 0.0
2017-Sep-12 18:55S 29°42' E 031°12'0 0.2
2017-Sep-12 18:28S 29°42' E 031°12'0 0.1
2017-Sep-12 17:52S 29°42' E 031°12'0 0.0
2017-Sep-12 17:28S 29°42' E 031°12'0 0.0
2017-Sep-12 16:58S 29°42' E 031°12'0 0.0
2017-Sep-12 16:28S 29°42' E 031°12'0 0.0
2017-Sep-12 15:58S 29°42' E 031°12'0 0.0
2017-Sep-12 15:28S 29°42' E 031°12'0 0.2
2017-Sep-12 14:58S 29°42' E 031°12'0 0.2
2017-Sep-12 14:28S 29°42' E 031°12'0 0.1
2017-Sep-12 13:58S 29°42' E 031°12'0 0.1
2017-Sep-12 13:28S 29°42' E 031°12'1 1.6
2017-Sep-12 13:00S 29°43' E 031°12'0 0.9
2017-Sep-12 12:30S 29°43' E 031°12'0 0.0
2017-Sep-12 12:00S 29°43' E 031°12'0 0.0
2017-Sep-12 11:30S 29°43' E 031°12'0 0.2
2017-Sep-12 11:00S 29°43' E 031°12'0 0.1
2017-Sep-12 10:30S 29°43' E 031°12'0 0.0
2017-Sep-12 10:00S 29°43' E 031°12'0 0.0
2017-Sep-12 09:30S 29°43' E 031°12'0 0.1
2017-Sep-12 09:00S 29°43' E 031°12'0 0.0
2017-Sep-12 08:30S 29°43' E 031°12'0 0.0
2017-Sep-12 08:00S 29°43' E 031°12'0 0.3
2017-Sep-12 07:30S 29°43' E 031°12'3 5.3
2017-Sep-12 07:00S 29°45' E 031°14'5 9.9
2017-Sep-12 06:30S 29°50' E 031°11'612.9
2017-Sep-12 06:00S 29°56' E 031°10'612.5
2017-Sep-12 05:30S 30°02' E 031°09'611.7
2017-Sep-12 05:00S 30°08' E 031°09'510.7
2017-Sep-12 04:30S 30°14' E 031°09'510.1
2017-Sep-12 04:00S 30°19' E 031°08'5 9.5
2017-Sep-12 03:30S 30°23' E 031°06'5 9.6
2017-Sep-12 03:00S 30°27' E 031°03'5 9.5
2017-Sep-12 02:30S 30°31' E 031°00'5 9.5
2017-Sep-12 02:00S 30°35' E 030°58'6 9.5
2017-Sep-12 01:24S 30°40' E 030°54'4 9.4
2017-Sep-12 01:00S 30°43' E 030°52'5 9.1
2017-Sep-12 00:30S 30°47' E 030°50'5 9.1
2017-Sep-12 00:00S 30°51' E 030°47'5 8.9
2017-Sep-11 23:29S 30°55' E 030°44'4 8.6
2017-Sep-11 23:00S 30°59' E 030°42'4 8.3
2017-Sep-11 22:30S 31°02' E 030°39'4 8.3
2017-Sep-11 22:00S 31°06' E 030°36'4 8.5
2017-Sep-11 21:30S 31°09' E 030°33'4 7.9
2017-Sep-11 21:00S 31°12' E 030°30'4 8.2
2017-Sep-11 20:30S 31°16' E 030°28'4 8.4
2017-Sep-11 20:00S 31°19' E 030°25'4 8.5
2017-Sep-11 19:30S 31°23' E 030°23'4 8.7
2017-Sep-11 19:00S 31°27' E 030°20'4 8.7
2017-Sep-11 18:30S 31°30' E 030°17'  
Track history (hours):
 
Tides and Currents Weather Stations Pressure Air Temp Water Temp Dewpoint Dewpoint Depression Visibility Wind Speed Wind Dir Waves Ship Positions

Northern Power

Last reported at 2017-Sep-19 16:03 UTC. Time now 2017-Nov-21 21:18 UTC.
Position S 29°27' E 032°01'.
Warning: this ship's position is months out of date.

Length 264 m; draft 11.4 m.

Type: Cargo ship. MMSI: 636091835.

Date/timePositionNaut miles runAvg speedWind from/ knotsBaromVisibWave heightAir tempDewpointWater temp
2017-Sep-19 16:03S 29°27' E 032°01'1 9.8
2017-Sep-19 15:58S 29°27' E 031°60'4 9.9
2017-Sep-19 15:30S 29°30' E 031°55'510.0
2017-Sep-19 15:00S 29°32' E 031°50'511.0
2017-Sep-19 14:30S 29°34' E 031°44'611.9
2017-Sep-19 14:00S 29°37' E 031°38'612.4
2017-Sep-19 13:30S 29°39' E 031°32'612.8
2017-Sep-19 13:00S 29°42' E 031°25'612.9
2017-Sep-19 12:30S 29°45' E 031°18'612.7
2017-Sep-19 12:00S 29°47' E 031°12'612.6
2017-Sep-19 11:30S 29°51' E 031°05'4 7.1
2017-Sep-19 11:00S 29°52' E 031°02'1 1.7
2017-Sep-19 10:30S 29°53' E 031°01'0 0.0
2017-Sep-19 10:00S 29°53' E 031°01'0 0.0
2017-Sep-19 09:30S 29°53' E 031°01'0 0.0
2017-Sep-19 09:00S 29°53' E 031°01'0 0.0
2017-Sep-19 08:29S 29°53' E 031°01'0 0.0
2017-Sep-19 08:00S 29°53' E 031°01'0 0.0
2017-Sep-19 07:30S 29°53' E 031°01'0 0.1
2017-Sep-19 07:00S 29°53' E 031°01'0 0.1
2017-Sep-19 06:30S 29°53' E 031°01'0 0.0
2017-Sep-19 05:58S 29°53' E 031°01'0 0.0
2017-Sep-19 05:30S 29°53' E 031°01'0 0.1
2017-Sep-19 04:58S 29°53' E 031°01'0 0.1
2017-Sep-19 04:29S 29°53' E 031°01'0 0.1
2017-Sep-19 03:59S 29°53' E 031°01'0 0.0
2017-Sep-19 03:29S 29°53' E 031°01'0 0.0
2017-Sep-19 02:59S 29°53' E 031°01'0 0.0
2017-Sep-19 02:29S 29°53' E 031°01'0 0.0
2017-Sep-19 01:59S 29°53' E 031°01'0 0.0
2017-Sep-19 01:26S 29°53' E 031°01'0 0.0
2017-Sep-19 00:59S 29°53' E 031°01'0 0.0
2017-Sep-19 00:29S 29°53' E 031°01'0 0.0
2017-Sep-18 23:59S 29°53' E 031°01'0 0.0
2017-Sep-18 23:29S 29°53' E 031°01'0 0.0
2017-Sep-18 22:59S 29°53' E 031°01'0 0.0
2017-Sep-18 22:29S 29°53' E 031°01'0 0.0
2017-Sep-18 21:59S 29°53' E 031°01'0 0.0
2017-Sep-18 21:29S 29°53' E 031°01'0 0.0
2017-Sep-18 20:59S 29°53' E 031°01'0 0.0
2017-Sep-18 20:29S 29°53' E 031°01'0 0.0
2017-Sep-18 19:59S 29°53' E 031°01'0 0.0
2017-Sep-18 19:29S 29°53' E 031°01'0 0.0
2017-Sep-18 18:59S 29°53' E 031°01'0 0.0
2017-Sep-18 18:29S 29°53' E 031°01'0 0.0
2017-Sep-18 17:59S 29°53' E 031°01'0 0.0
2017-Sep-18 17:29S 29°53' E 031°01'0 0.0
2017-Sep-18 16:59S 29°53' E 031°01'0 0.0
2017-Sep-18 16:29S 29°53' E 031°01'0 0.0
2017-Sep-18 15:59S 29°53' E 031°01'0 0.0
2017-Sep-18 15:29S 29°53' E 031°01'0 0.0
2017-Sep-18 14:59S 29°53' E 031°01'0 0.0
2017-Sep-18 14:29S 29°53' E 031°01'0 0.0
2017-Sep-18 13:59S 29°53' E 031°01'0 0.0
2017-Sep-18 13:29S 29°53' E 031°01'0 0.0
2017-Sep-18 12:59S 29°53' E 031°01'0 0.0
2017-Sep-18 12:29S 29°53' E 031°01'0 0.2
2017-Sep-18 12:00S 29°53' E 031°01'2 4.3
2017-Sep-18 11:30S 29°52' E 031°04'4 7.3
2017-Sep-18 11:00S 29°49' E 031°06'5 9.1
2017-Sep-18 10:30S 29°48' E 031°11'0 0.9
2017-Sep-18 10:00S 29°48' E 031°11'1 1.3
2017-Sep-18 09:30S 29°47' E 031°10'2 4.2
2017-Sep-18 09:00S 29°45' E 031°11'2 3.8
2017-Sep-18 08:28S 29°43' E 031°11'0 0.2
2017-Sep-18 07:58S 29°43' E 031°11'0 0.0
2017-Sep-18 07:25S 29°43' E 031°11'0 0.1
2017-Sep-18 06:58S 29°43' E 031°11'0 0.1
2017-Sep-18 06:28S 29°43' E 031°11'0 0.1
2017-Sep-18 05:58S 29°43' E 031°11'0 0.0
2017-Sep-18 05:28S 29°43' E 031°11'0 0.0
2017-Sep-18 04:58S 29°43' E 031°11'0 0.1
2017-Sep-18 04:28S 29°43' E 031°11'0 0.1
2017-Sep-18 03:58S 29°43' E 031°11'0 0.0
2017-Sep-18 03:28S 29°43' E 031°11'0 0.1
2017-Sep-18 02:58S 29°43' E 031°11'0 0.1
2017-Sep-18 02:25S 29°43' E 031°11'0 0.1
2017-Sep-18 01:58S 29°43' E 031°11'0 0.0
2017-Sep-17 18:52S 29°43' E 031°11'0 0.1
2017-Sep-17 18:28S 29°43' E 031°11'0 0.0
2017-Sep-17 17:58S 29°43' E 031°11'0 0.0
2017-Sep-17 17:28S 29°43' E 031°11'0 0.1
2017-Sep-17 16:55S 29°43' E 031°11'0 0.0
2017-Sep-17 16:28S 29°43' E 031°11'0 0.0
2017-Sep-17 15:58S 29°43' E 031°11'0 0.0
2017-Sep-17 15:28S 29°43' E 031°11'0 0.0
2017-Sep-17 14:58S 29°43' E 031°11'0 0.0
2017-Sep-17 14:28S 29°43' E 031°11'0 0.0
2017-Sep-17 13:58S 29°43' E 031°11'0 0.1
2017-Sep-17 13:28S 29°43' E 031°11'0 0.0
2017-Sep-17 12:58S 29°43' E 031°11'0 0.0
2017-Sep-17 12:25S 29°43' E 031°11'0 0.0
2017-Sep-17 11:58S 29°43' E 031°11'0 0.0
2017-Sep-17 11:28S 29°43' E 031°11'0 0.0
2017-Sep-17 10:58S 29°43' E 031°11'0 0.1
2017-Sep-17 10:28S 29°43' E 031°11'0 0.0
2017-Sep-17 09:58S 29°43' E 031°11'0 0.0
2017-Sep-17 09:28S 29°43' E 031°11'0 0.1
2017-Sep-17 08:58S 29°43' E 031°11'0 0.1
2017-Sep-17 08:28S 29°43' E 031°11'0 0.0
2017-Sep-17 07:58S 29°43' E 031°11'0 0.1
2017-Sep-17 07:28S 29°43' E 031°11'0 0.1
2017-Sep-17 06:58S 29°43' E 031°11'0 0.1
2017-Sep-17 06:28S 29°43' E 031°11'0 0.0
2017-Sep-17 05:58S 29°43' E 031°11'0 0.0
2017-Sep-17 05:25S 29°43' E 031°11'0 0.0
2017-Sep-17 04:58S 29°43' E 031°11'0 0.0
2017-Sep-17 04:28S 29°43' E 031°11'0 0.1
2017-Sep-17 03:55S 29°43' E 031°11'0 0.1
2017-Sep-17 03:28S 29°43' E 031°11'0 0.1
2017-Sep-17 02:58S 29°43' E 031°11'0 0.1
2017-Sep-17 02:28S 29°43' E 031°11'0 0.0
2017-Sep-17 01:58S 29°43' E 031°11'0 0.0
2017-Sep-17 01:25S 29°43' E 031°11'0 0.1
2017-Sep-17 00:58S 29°43' E 031°11'0 0.0
2017-Sep-17 00:28S 29°43' E 031°11'0 0.1
2017-Sep-16 23:58S 29°43' E 031°11'0 0.0
2017-Sep-16 23:28S 29°43' E 031°11'0 0.1
2017-Sep-16 22:58S 29°43' E 031°11'0 0.0
2017-Sep-16 22:28S 29°43' E 031°11'0 0.2
2017-Sep-16 22:00S 29°43' E 031°11'2 3.1
2017-Sep-16 21:30S 29°42' E 031°12'2 3.5
2017-Sep-16 21:00S 29°41' E 031°14'1 2.9
2017-Sep-16 20:30S 29°40' E 031°15'1 3.0
2017-Sep-16 20:00S 29°40' E 031°17'0 0.9
2017-Sep-16 19:30S 29°40' E 031°17'1 3.0
2017-Sep-16 19:00S 29°41' E 031°16'4 8.0
2017-Sep-16 18:30S 29°45' E 031°15'4 8.8
2017-Sep-16 18:00S 29°49' E 031°13'2 4.3
2017-Sep-16 17:30S 29°47' E 031°12'2 4.2
2017-Sep-16 17:00S 29°45' E 031°12'1 2.9
2017-Sep-16 16:30S 29°43' E 031°12'1 2.6
2017-Sep-16 16:00S 29°42' E 031°13'0 0.4
2017-Sep-16 15:28S 29°42' E 031°12'0 0.2
2017-Sep-16 14:58S 29°42' E 031°12'0 0.2
2017-Sep-16 14:28S 29°42' E 031°12'0 0.0
2017-Sep-16 13:58S 29°42' E 031°12'0 0.1
2017-Sep-16 13:28S 29°42' E 031°12'0 0.0
2017-Sep-16 12:58S 29°42' E 031°12'0 0.0
2017-Sep-16 12:28S 29°42' E 031°12'0 0.0
2017-Sep-16 11:58S 29°42' E 031°12'0 0.0
2017-Sep-16 11:28S 29°42' E 031°12'0 0.0
2017-Sep-16 10:58S 29°42' E 031°12'0 0.0
2017-Sep-16 10:28S 29°42' E 031°12'0 0.1
2017-Sep-16 09:58S 29°42' E 031°12'0 0.0
2017-Sep-16 09:28S 29°42' E 031°12'0 0.3
2017-Sep-16 08:58S 29°42' E 031°12'0 0.1
2017-Sep-16 08:28S 29°42' E 031°12'0 0.1
2017-Sep-16 07:58S 29°42' E 031°12'0 0.1
2017-Sep-16 07:28S 29°42' E 031°12'0 0.0
2017-Sep-16 06:58S 29°42' E 031°12'0 0.1
2017-Sep-16 06:25S 29°42' E 031°12'0 0.1
2017-Sep-16 05:58S 29°42' E 031°12'0 0.1
2017-Sep-16 05:28S 29°42' E 031°12'0 0.0
2017-Sep-16 04:58S 29°42' E 031°12'0 0.1
2017-Sep-16 04:28S 29°42' E 031°12'0 0.0
2017-Sep-16 03:52S 29°42' E 031°12'0 0.0
2017-Sep-16 03:28S 29°42' E 031°12'0 0.0
2017-Sep-16 02:58S 29°42' E 031°12'0 0.0
2017-Sep-16 02:28S 29°42' E 031°12'0 0.0
2017-Sep-16 01:58S 29°42' E 031°12'0 0.0
2017-Sep-16 01:25S 29°42' E 031°12'0 0.0
2017-Sep-16 00:58S 29°42' E 031°12'0 0.0
2017-Sep-16 00:28S 29°42' E 031°12'0 0.0
2017-Sep-15 23:58S 29°42' E 031°12'0 0.0
2017-Sep-15 23:28S 29°42' E 031°12'0 0.0
2017-Sep-15 22:58S 29°42' E 031°12'0 0.0
2017-Sep-15 22:28S 29°42' E 031°12'0 0.0
2017-Sep-15 21:58S 29°42' E 031°12'0 0.1
2017-Sep-15 21:25S 29°42' E 031°12'0 0.0
2017-Sep-15 20:58S 29°42' E 031°12'0 0.0
2017-Sep-15 20:28S 29°42' E 031°12'0 0.0
2017-Sep-15 19:58S 29°42' E 031°12'0 0.0
2017-Sep-15 19:28S 29°42' E 031°12'0 0.0
2017-Sep-15 18:58S 29°42' E 031°12'0 0.0
2017-Sep-15 18:25S 29°42' E 031°12'0 0.0
2017-Sep-15 17:58S 29°42' E 031°12'0 0.0
2017-Sep-15 17:28S 29°42' E 031°12'0 0.0
2017-Sep-15 16:58S 29°42' E 031°12'0 0.0
2017-Sep-15 16:28S 29°42' E 031°12'0 0.0
2017-Sep-15 15:58S 29°42' E 031°12'0 0.0
2017-Sep-15 15:25S 29°42' E 031°12'0 0.0
2017-Sep-15 14:58S 29°42' E 031°12'0 0.0
2017-Sep-15 14:28S 29°42' E 031°12'0 0.0
2017-Sep-15 13:58S 29°42' E 031°12'0 0.0
2017-Sep-15 13:28S 29°42' E 031°12'0 0.0
2017-Sep-15 12:58S 29°42' E 031°12'0 0.0
2017-Sep-15 12:28S 29°42' E 031°12'0 0.0
2017-Sep-15 11:58S 29°42' E 031°12'0 0.0
2017-Sep-15 11:28S 29°42' E 031°12'0 0.0
2017-Sep-15 10:58S 29°42' E 031°12'0 0.0
2017-Sep-15 10:25S 29°42' E 031°12'0 0.0
2017-Sep-15 09:52S 29°42' E 031°12'0 0.0
2017-Sep-15 09:28S 29°42' E 031°12'0 0.1
2017-Sep-15 08:58S 29°42' E 031°12'0 0.0
2017-Sep-15 08:28S 29°42' E 031°12'0 0.0
2017-Sep-15 07:58S 29°42' E 031°12'0 0.0
2017-Sep-15 07:28S 29°42' E 031°12'0 0.0
2017-Sep-15 06:58S 29°42' E 031°12'0 0.0
2017-Sep-15 06:28S 29°42' E 031°12'0 0.0
2017-Sep-15 05:58S 29°42' E 031°12'0 0.0
2017-Sep-15 05:28S 29°42' E 031°12'0 0.0
2017-Sep-15 04:58S 29°42' E 031°12'0 0.0
2017-Sep-15 04:28S 29°42' E 031°12'0 0.0
2017-Sep-15 03:58S 29°42' E 031°12'0 0.1
2017-Sep-15 03:28S 29°42' E 031°12'0 0.1
2017-Sep-15 02:58S 29°42' E 031°12'0 0.1
2017-Sep-15 02:28S 29°42' E 031°12'0 0.0
2017-Sep-15 01:58S 29°42' E 031°12'0 0.0
2017-Sep-15 01:25S 29°42' E 031°12'0 0.0
2017-Sep-15 00:58S 29°42' E 031°12'0 0.0
2017-Sep-15 00:28S 29°42' E 031°12'0 0.0
2017-Sep-14 23:58S 29°42' E 031°12'0 0.0
2017-Sep-14 23:28S 29°42' E 031°12'0 0.0
2017-Sep-14 22:58S 29°42' E 031°12'0 0.1
2017-Sep-14 22:28S 29°42' E 031°12'0 0.1
2017-Sep-14 21:58S 29°42' E 031°12'0 0.0
2017-Sep-14 21:25S 29°42' E 031°12'0 0.2
2017-Sep-14 20:58S 29°42' E 031°12'0 0.1
2017-Sep-14 20:28S 29°42' E 031°12'0 0.1
2017-Sep-14 19:58S 29°42' E 031°12'0 0.1
2017-Sep-14 19:28S 29°42' E 031°12'0 0.0
2017-Sep-14 18:58S 29°42' E 031°12'0 0.0
2017-Sep-14 18:28S 29°42' E 031°12'0 0.1
2017-Sep-14 17:58S 29°42' E 031°12'0 0.1
2017-Sep-14 17:25S 29°42' E 031°12'0 0.0
2017-Sep-14 16:58S 29°42' E 031°12'0 0.0
2017-Sep-14 16:28S 29°42' E 031°12'0 0.1
2017-Sep-14 15:58S 29°42' E 031°12'0 0.0
2017-Sep-14 15:28S 29°42' E 031°12'0 0.0
2017-Sep-14 14:58S 29°42' E 031°12'0 0.1
2017-Sep-14 14:28S 29°42' E 031°12'0 0.0
2017-Sep-14 13:55S 29°42' E 031°12'0 0.0
2017-Sep-14 13:28S 29°42' E 031°12'0 0.1
2017-Sep-14 12:58S 29°42' E 031°12'0 0.1
2017-Sep-14 12:28S 29°42' E 031°12'0 0.1
2017-Sep-14 11:58S 29°42' E 031°12'0 0.1
2017-Sep-14 11:25S 29°42' E 031°12'0 0.1
2017-Sep-14 10:49S 29°42' E 031°12'0 0.1
2017-Sep-14 10:28S 29°42' E 031°12'0 0.0
2017-Sep-14 09:55S 29°42' E 031°12'0 0.0
2017-Sep-14 09:28S 29°42' E 031°12'0 0.0
2017-Sep-14 08:58S 29°42' E 031°12'0 0.1
2017-Sep-14 08:28S 29°42' E 031°12'0 0.0
2017-Sep-14 07:58S 29°42' E 031°12'0 0.0
2017-Sep-14 07:28S 29°42' E 031°12'0 0.0
2017-Sep-14 06:58S 29°42' E 031°12'0 0.0
2017-Sep-14 06:28S 29°42' E 031°12'0 0.0
2017-Sep-14 05:58S 29°42' E 031°12'0 0.0
2017-Sep-14 05:25S 29°42' E 031°12'0 0.1
2017-Sep-14 04:58S 29°42' E 031°12'0 0.2
2017-Sep-14 04:28S 29°42' E 031°12'0 0.0
2017-Sep-14 03:55S 29°42' E 031°12'0 0.1
2017-Sep-14 03:22S 29°42' E 031°12'0 0.1
2017-Sep-14 02:55S 29°42' E 031°12'0 0.0
2017-Sep-14 02:28S 29°42' E 031°12'0 0.0
2017-Sep-14 01:58S 29°42' E 031°12'0 0.0
2017-Sep-14 01:25S 29°42' E 031°12'0 0.1
2017-Sep-14 00:58S 29°42' E 031°12'0 0.0
2017-Sep-14 00:28S 29°42' E 031°12'0 0.0
2017-Sep-13 23:58S 29°42' E 031°12'0 0.1
2017-Sep-13 23:28S 29°42' E 031°12'0 0.1
2017-Sep-13 22:58S 29°42' E 031°12'0 0.0
2017-Sep-13 22:28S 29°42' E 031°12'0 0.0
2017-Sep-13 21:58S 29°42' E 031°12'0 0.1
2017-Sep-13 21:28S 29°42' E 031°12'0 0.0
2017-Sep-13 20:58S 29°42' E 031°12'0 0.0
2017-Sep-13 20:25S 29°42' E 031°12'0 0.1
2017-Sep-13 19:55S 29°42' E 031°12'0 0.0
2017-Sep-13 19:28S 29°42' E 031°12'0 0.0
2017-Sep-13 18:52S 29°42' E 031°12'0 0.0
2017-Sep-13 18:28S 29°42' E 031°12'0 0.0
2017-Sep-13 17:55S 29°42' E 031°12'0 0.0
2017-Sep-13 17:28S 29°42' E 031°12'0 0.0
2017-Sep-13 16:55S 29°42' E 031°12'0 0.0
2017-Sep-13 16:28S 29°42' E 031°12'0 0.0
2017-Sep-13 15:58S 29°42' E 031°12'0 0.0
2017-Sep-13 15:28S 29°42' E 031°12'0 0.0
2017-Sep-13 14:58S 29°42' E 031°12'0 0.0
2017-Sep-13 14:28S 29°42' E 031°12'0 0.0
2017-Sep-13 13:58S 29°42' E 031°12'0 0.0
2017-Sep-13 13:28S 29°42' E 031°12'0 0.0
2017-Sep-13 12:58S 29°42' E 031°12'0 0.0
2017-Sep-13 12:28S 29°42' E 031°12'0 0.0
2017-Sep-13 11:58S 29°42' E 031°12'0 0.0
2017-Sep-13 11:28S 29°42' E 031°12'0 0.0
2017-Sep-13 10:58S 29°42' E 031°12'0 0.0
2017-Sep-13 10:28S 29°42' E 031°12'0 0.0
2017-Sep-13 09:58S 29°42' E 031°12'0 0.0
2017-Sep-13 09:28S 29°42' E 031°12'0 0.0
2017-Sep-13 08:58S 29°42' E 031°12'0 0.0
2017-Sep-13 08:28S 29°42' E 031°12'0 0.0
2017-Sep-13 07:58S 29°42' E 031°12'0 0.0
2017-Sep-13 07:28S 29°42' E 031°12'0 0.0
2017-Sep-13 06:58S 29°42' E 031°12'0 0.0
2017-Sep-13 06:25S 29°42' E 031°12'0 0.0
2017-Sep-13 05:55S 29°42' E 031°12'0 0.1
2017-Sep-13 05:28S 29°42' E 031°12'0 0.1
2017-Sep-13 04:58S 29°42' E 031°12'0 0.1
2017-Sep-13 04:28S 29°42' E 031°12'0 0.1
2017-Sep-13 03:55S 29°42' E 031°12'0 0.0
2017-Sep-13 03:28S 29°42' E 031°12'0 0.0
2017-Sep-13 02:58S 29°42' E 031°12'0 0.0
2017-Sep-13 02:28S 29°42' E 031°12'0 0.1
2017-Sep-13 01:58S 29°42' E 031°12'0 0.0
2017-Sep-13 01:22S 29°42' E 031°12'0 0.1
2017-Sep-13 00:58S 29°42' E 031°12'0 0.0
2017-Sep-13 00:25S 29°42' E 031°12'0 0.0
2017-Sep-12 23:55S 29°42' E 031°12'0 0.0
2017-Sep-12 23:28S 29°42' E 031°12'0 0.0
2017-Sep-12 22:58S 29°42' E 031°12'0 0.0
2017-Sep-12 22:28S 29°42' E 031°12'0 0.0
2017-Sep-12 21:58S 29°42' E 031°12'0 0.1
2017-Sep-12 21:28S 29°42' E 031°12'0 0.0
2017-Sep-12 20:58S 29°42' E 031°12'0 0.1
2017-Sep-12 20:28S 29°42' E 031°12'0 0.1
2017-Sep-12 19:58S 29°42' E 031°12'0 0.3
2017-Sep-12 19:28S 29°42' E 031°12'0 0.0
2017-Sep-12 18:55S 29°42' E 031°12'0 0.2
2017-Sep-12 18:28S 29°42' E 031°12'0 0.1
2017-Sep-12 17:52S 29°42' E 031°12'0 0.0
2017-Sep-12 17:28S 29°42' E 031°12'0 0.0
2017-Sep-12 16:58S 29°42' E 031°12'0 0.0
2017-Sep-12 16:28S 29°42' E 031°12'0 0.0
2017-Sep-12 15:58S 29°42' E 031°12'0 0.0
2017-Sep-12 15:28S 29°42' E 031°12'0 0.2
2017-Sep-12 14:58S 29°42' E 031°12'0 0.2
2017-Sep-12 14:28S 29°42' E 031°12'0 0.1
2017-Sep-12 13:58S 29°42' E 031°12'0 0.1
2017-Sep-12 13:28S 29°42' E 031°12'1 1.6
2017-Sep-12 13:00S 29°43' E 031°12'0 0.9
2017-Sep-12 12:30S 29°43' E 031°12'0 0.0
2017-Sep-12 12:00S 29°43' E 031°12'0 0.0
2017-Sep-12 11:30S 29°43' E 031°12'0 0.2
2017-Sep-12 11:00S 29°43' E 031°12'0 0.1
2017-Sep-12 10:30S 29°43' E 031°12'0 0.0
2017-Sep-12 10:00S 29°43' E 031°12'0 0.0
2017-Sep-12 09:30S 29°43' E 031°12'0 0.1
2017-Sep-12 09:00S 29°43' E 031°12'0 0.0
2017-Sep-12 08:30S 29°43' E 031°12'0 0.0
2017-Sep-12 08:00S 29°43' E 031°12'0 0.3
2017-Sep-12 07:30S 29°43' E 031°12'3 5.3
2017-Sep-12 07:00S 29°45' E 031°14'5 9.9
2017-Sep-12 06:30S 29°50' E 031°11'612.9
2017-Sep-12 06:00S 29°56' E 031°10'612.5
2017-Sep-12 05:30S 30°02' E 031°09'611.7
2017-Sep-12 05:00S 30°08' E 031°09'510.7
2017-Sep-12 04:30S 30°14' E 031°09'510.1
2017-Sep-12 04:00S 30°19' E 031°08'5 9.5
2017-Sep-12 03:30S 30°23' E 031°06'5 9.6
2017-Sep-12 03:00S 30°27' E 031°03'5 9.5
2017-Sep-12 02:30S 30°31' E 031°00'5 9.5
2017-Sep-12 02:00S 30°35' E 030°58'6 9.5
2017-Sep-12 01:24S 30°40' E 030°54'4 9.4
2017-Sep-12 01:00S 30°43' E 030°52'5 9.1
2017-Sep-12 00:30S 30°47' E 030°50'5 9.1
2017-Sep-12 00:00S 30°51' E 030°47'5 8.9
2017-Sep-11 23:29S 30°55' E 030°44'4 8.6
2017-Sep-11 23:00S 30°59' E 030°42'4 8.3
2017-Sep-11 22:30S 31°02' E 030°39'4 8.3
2017-Sep-11 22:00S 31°06' E 030°36'4 8.5
2017-Sep-11 21:30S 31°09' E 030°33'4 7.9
2017-Sep-11 21:00S 31°12' E 030°30'4 8.2
2017-Sep-11 20:30S 31°16' E 030°28'4 8.4
2017-Sep-11 20:00S 31°19' E 030°25'4 8.5
2017-Sep-11 19:30S 31°23' E 030°23'4 8.7
2017-Sep-11 19:00S 31°27' E 030°20'4 8.7
2017-Sep-11 18:30S 31°30' E 030°17'  

Dump ship's entire track history